createdAt,value
2022-09-12T00:02:36.578Z,13.6
2022-09-12T00:04:40.103Z,12.8
2022-09-12T00:06:43.599Z,15.1
2022-09-12T00:08:47.118Z,13.3
2022-09-12T00:12:57.268Z,13.7
2022-09-12T00:15:00.736Z,13.6
2022-09-12T00:19:07.771Z,13.8
2022-09-12T00:21:11.296Z,14.5
2022-09-12T00:23:14.800Z,13.7
2022-09-12T00:25:21.384Z,14.3
2022-09-12T00:27:24.907Z,13.5
2022-09-12T00:29:28.424Z,13.7
2022-09-12T00:30:31.750Z,16.1
2022-09-12T00:32:35.271Z,13.6
2022-09-12T00:34:38.755Z,13.5
2022-09-12T00:36:42.271Z,12.3
2022-09-12T00:38:48.850Z,14.2
2022-09-12T00:40:52.359Z,14.1
2022-09-12T00:42:55.891Z,13.9
2022-09-12T00:44:59.416Z,14.3
2022-09-12T00:47:02.943Z,13.3
2022-09-12T00:49:06.493Z,14.4
2022-09-12T00:51:10.007Z,15.4
2022-09-12T00:59:27.159Z,15.4
2022-09-12T01:05:37.772Z,17.4
2022-09-12T01:07:44.359Z,17.7
2022-09-12T01:09:47.881Z,17.1
2022-09-12T01:11:51.412Z,15.5
2022-09-12T01:13:54.920Z,15.3
2022-09-12T01:20:05.479Z,14.5
2022-09-12T01:24:15.644Z,14
2022-09-12T01:27:22.419Z,13.1
2022-09-12T01:29:25.920Z,12.8
2022-09-12T01:31:29.473Z,14.2
2022-09-12T01:33:33.112Z,14.2
2022-09-12T01:35:39.591Z,15.2
2022-09-12T01:37:43.105Z,14.2
2022-09-12T01:39:46.732Z,14
2022-09-12T01:41:50.129Z,13
2022-09-12T01:43:53.656Z,13.4
2022-09-12T01:45:57.264Z,12.9
2022-09-12T01:48:00.697Z,12.4
2022-09-12T01:50:07.289Z,13
2022-09-12T01:54:14.309Z,13.5
2022-09-12T01:56:17.857Z,14.9
2022-09-12T01:58:21.390Z,14.8
2022-09-12T02:00:24.893Z,11.8
2022-09-12T02:02:28.437Z,13.1
2022-09-12T02:04:35.003Z,14.9
2022-09-12T02:06:38.566Z,12.1
2022-09-12T02:08:42.099Z,12.5
2022-09-12T02:10:45.660Z,13.7
2022-09-12T02:12:49.127Z,13
2022-09-12T02:14:52.681Z,13.7
2022-09-12T02:16:56.202Z,14.4
2022-09-12T02:21:06.375Z,14.3
2022-09-12T02:23:09.928Z,14
2022-09-12T02:25:31.952Z,15.3
2022-09-12T02:27:35.500Z,15.1
2022-09-12T02:29:39.053Z,15.6
2022-09-12T02:31:45.664Z,16.8
2022-09-12T02:33:49.203Z,14.1
2022-09-12T02:35:52.730Z,15.5
2022-09-12T02:37:56.261Z,14.9
2022-09-12T02:39:59.897Z,15.6
2022-09-12T02:42:03.340Z,15.5
2022-09-12T02:44:06.892Z,14.8
2022-09-12T02:46:13.525Z,15.5
2022-09-12T02:48:17.102Z,15.9
2022-09-12T02:50:20.618Z,15.1
2022-09-12T02:52:24.171Z,16
2022-09-12T02:54:27.750Z,16
2022-09-12T02:56:31.283Z,16.2
2022-09-12T02:58:34.825Z,16
2022-09-12T03:02:44.958Z,15.4
2022-09-12T03:06:52.100Z,15.8
2022-09-12T03:08:55.637Z,16.1
2022-09-12T03:13:03.200Z,16.6
2022-09-12T03:15:14.179Z,17.9
2022-09-12T03:17:18.409Z,18.1
2022-09-12T03:19:16.458Z,17.8
2022-09-12T03:20:19.781Z,18.8
2022-09-12T03:26:30.477Z,17.4
2022-09-12T03:28:37.074Z,21.1
2022-09-12T03:30:40.655Z,20.3
2022-09-12T03:32:44.149Z,19.1
2022-09-12T03:34:47.726Z,19
2022-09-12T03:36:51.233Z,17.9
2022-09-12T03:38:54.787Z,19.4
2022-09-12T03:40:58.352Z,20
2022-09-12T03:43:06.525Z,20.7
2022-09-12T03:45:10.003Z,18.2
2022-09-12T03:47:13.540Z,18.9
2022-09-12T03:49:17.079Z,21.1
2022-09-12T03:51:20.626Z,19.5
2022-09-12T03:53:24.194Z,18.2
2022-09-12T03:55:27.743Z,18.4
2022-09-12T03:59:37.891Z,18.8
2022-09-12T04:01:41.448Z,17.4
2022-09-12T04:03:44.976Z,20.6
2022-09-12T04:05:48.518Z,17.4
2022-09-12T04:07:52.044Z,16.6
2022-09-12T04:09:55.600Z,18.1
2022-09-12T04:12:02.229Z,19.6
2022-09-12T04:14:05.752Z,19.1
2022-09-12T04:16:09.443Z,18.1
2022-09-12T04:19:16.228Z,20.6
2022-09-12T04:21:19.766Z,18.7
2022-09-12T04:23:23.380Z,18.8
2022-09-12T04:25:29.976Z,20.1
2022-09-12T04:27:33.486Z,21.2
2022-09-12T04:31:40.584Z,19.2
2022-09-12T04:33:44.117Z,19.4
2022-09-12T04:35:47.662Z,22
2022-09-12T04:37:51.213Z,21.5
2022-09-12T04:39:58.045Z,23.9
2022-09-12T04:44:04.941Z,26.2
2022-09-12T04:46:08.546Z,24.4
2022-09-12T04:48:12.008Z,26.6
2022-09-12T04:50:15.584Z,26.4
2022-09-12T04:52:19.119Z,27.4
2022-09-12T04:54:25.759Z,26.2
2022-09-12T04:56:29.279Z,24.9
2022-09-12T04:58:32.797Z,26.7
2022-09-12T05:00:36.375Z,24.3
2022-09-12T05:02:39.904Z,24.5
2022-09-12T05:04:43.473Z,26.3
2022-09-12T05:06:46.996Z,24.1
2022-09-12T05:08:53.595Z,27.5
2022-09-12T05:10:57.142Z,26.6
2022-09-12T05:13:00.695Z,25.9
2022-09-12T05:14:04.026Z,26.6
2022-09-12T05:16:07.592Z,25.8
2022-09-12T05:18:11.150Z,25.5
2022-09-12T05:20:18.464Z,26.1
2022-09-12T05:22:21.293Z,28.5
2022-09-12T05:24:24.867Z,24.9
2022-09-12T05:26:28.370Z,27.7
2022-09-12T05:30:35.522Z,24.5
2022-09-12T05:32:39.018Z,23.5
2022-09-12T05:34:42.593Z,24
2022-09-12T05:36:49.227Z,27.9
2022-09-12T05:38:52.763Z,26.2
2022-09-12T05:40:58.231Z,26.4
2022-09-12T05:42:59.823Z,26.4
2022-09-12T05:45:04.718Z,26.9
2022-09-12T05:47:06.955Z,29.1
2022-09-12T05:49:10.550Z,28.6
2022-09-12T05:51:17.141Z,29.9
2022-09-12T05:53:20.663Z,30.2
2022-09-12T05:55:24.193Z,27.3
2022-09-12T05:57:27.774Z,26.4
2022-09-12T05:59:31.300Z,26.7
2022-09-12T06:01:34.903Z,29.5
2022-09-12T06:03:38.364Z,29.4
2022-09-12T06:05:50.041Z,34.3
2022-09-12T06:07:48.541Z,29.1
2022-09-12T06:09:52.072Z,31.6
2022-09-12T06:12:16.203Z,33.1
2022-09-12T06:14:19.758Z,31
2022-09-12T06:16:23.364Z,32.1
2022-09-12T06:18:29.919Z,33.1
2022-09-12T06:22:37.016Z,35.2
2022-09-12T06:24:40.553Z,35.5
2022-09-12T06:26:44.101Z,34.4
2022-09-12T06:28:47.702Z,34.8
2022-09-12T06:30:51.192Z,34.7
2022-09-12T06:32:57.799Z,35.6
2022-09-12T06:35:01.339Z,35.1
2022-09-12T06:37:04.870Z,32
2022-09-12T06:39:08.437Z,31.5
2022-09-12T06:41:11.950Z,32.6
2022-09-12T06:43:15.489Z,33.3
2022-09-12T06:45:19.006Z,34
2022-09-12T06:47:25.596Z,34.3
2022-09-12T06:53:36.219Z,35.2
2022-09-12T06:57:43.263Z,38.1
2022-09-12T06:59:46.794Z,36.2
2022-09-12T07:01:53.458Z,38.8
2022-09-12T07:03:56.887Z,36.4
2022-09-12T07:06:00.387Z,38.3
2022-09-12T07:09:07.234Z,40
2022-09-12T07:11:10.769Z,38.9
2022-09-12T07:13:14.283Z,39.9
2022-09-12T07:15:20.843Z,43.5
2022-09-12T07:17:24.388Z,43.6
2022-09-12T07:19:27.877Z,40
2022-09-12T07:21:31.420Z,39.7
2022-09-12T07:23:34.939Z,40.2
2022-09-12T07:25:38.428Z,37
2022-09-12T07:27:41.906Z,38.9
2022-09-12T07:29:48.496Z,37.1
2022-09-12T07:31:51.990Z,36.7
2022-09-12T07:33:55.614Z,32.8
2022-09-12T07:35:58.993Z,33.6
2022-09-12T07:38:02.481Z,31.8
2022-09-12T07:40:06.085Z,33.2
2022-09-12T07:42:09.453Z,32.7
2022-09-12T07:44:16.077Z,29.1
2022-09-12T07:46:19.599Z,33.3
2022-09-12T07:48:23.005Z,28.7
2022-09-12T07:50:26.485Z,30.6
2022-09-12T07:56:39.158Z,29.3
2022-09-12T08:00:46.888Z,27.9
2022-09-12T08:03:53.617Z,28.6
2022-09-12T08:05:57.065Z,26.1
2022-09-12T08:08:00.490Z,26.1
2022-09-12T08:10:03.926Z,24.7
2022-09-12T08:12:10.491Z,27
2022-09-12T08:14:13.913Z,25.6
2022-09-12T08:16:17.353Z,24
2022-09-12T08:18:20.764Z,23.5
2022-09-12T08:20:28.146Z,26.8
2022-09-12T08:22:27.625Z,24.3
2022-09-12T08:24:31.040Z,25
2022-09-12T08:26:37.560Z,25.8
2022-09-12T08:28:41.003Z,24.4
2022-09-12T08:30:44.437Z,25.6
2022-09-12T08:32:47.812Z,24.9
2022-09-12T08:34:51.229Z,22.9
2022-09-12T08:36:54.633Z,25.1
2022-09-12T08:41:04.411Z,25.1
2022-09-12T08:43:07.786Z,24.3
2022-09-12T08:45:11.114Z,22.7
2022-09-12T08:47:14.509Z,24
2022-09-12T08:49:17.871Z,22.8
2022-09-12T08:51:21.259Z,24.5
2022-09-12T08:53:24.628Z,22.9
2022-09-12T08:55:31.135Z,21.9
2022-09-12T08:57:34.535Z,25.5
2022-09-12T09:00:41.147Z,24.2
2022-09-12T09:02:44.503Z,23.5
2022-09-12T09:04:47.835Z,22.9
2022-09-12T09:06:51.217Z,22.1
2022-09-12T09:08:57.604Z,22.6
2022-09-12T09:11:00.931Z,22.2
2022-09-12T09:13:04.291Z,20.5
2022-09-12T09:15:07.671Z,22.1
2022-09-12T09:17:10.883Z,22.5
2022-09-12T09:19:14.127Z,22.8
2022-09-12T09:21:17.464Z,20.8
2022-09-12T09:23:23.796Z,24.1
2022-09-12T09:25:27.000Z,20.7
2022-09-12T09:27:40.535Z,19.6
2022-09-12T09:31:36.659Z,19.8
2022-09-12T09:37:49.310Z,18.8
2022-09-12T09:39:54.114Z,19.6
2022-09-12T09:48:06.728Z,17.7
2022-09-12T09:50:09.900Z,17.5
2022-09-12T09:54:19.225Z,16.2
2022-09-12T09:58:46.293Z,15.2
2022-09-12T10:05:00.463Z,12.1
2022-09-12T10:11:07.875Z,9.8
2022-09-12T10:13:10.985Z,9.5
2022-09-12T10:15:14.103Z,7.7
2022-09-12T10:27:35.644Z,5.7
2022-09-12T10:29:38.729Z,4.8
2022-09-12T10:33:48.032Z,3.9
2022-09-12T10:37:53.966Z,3.3
2022-09-12T10:39:57.103Z,3.2
2022-09-12T10:44:03.072Z,4.4
2022-09-12T10:46:06.133Z,3.7
2022-09-12T10:48:12.143Z,3.9
2022-09-12T10:50:22.580Z,4.1
2022-09-12T10:52:18.170Z,3.7
2022-09-12T10:53:21.201Z,3.2
2022-09-12T10:55:24.180Z,3.8
2022-09-12T10:57:27.193Z,3.7
2022-09-12T10:59:30.161Z,2.8
2022-09-12T11:01:36.336Z,3.9
2022-09-12T11:03:39.187Z,3.5
2022-09-12T11:05:42.158Z,3.1
2022-09-12T11:07:45.119Z,2.5
2022-09-12T11:09:48.201Z,2.7
2022-09-12T11:11:51.018Z,4
2022-09-12T11:13:53.937Z,2.8
2022-09-12T11:15:59.980Z,3.1
2022-09-12T11:18:02.843Z,2.7
2022-09-12T11:20:05.724Z,2.4
2022-09-12T11:22:08.605Z,2.1
2022-09-12T11:24:11.463Z,2.5
2022-09-12T11:26:14.317Z,2.9
2022-09-12T11:28:17.152Z,3.1
2022-09-12T11:30:23.090Z,3.2
2022-09-12T11:32:25.880Z,2.4
2022-09-12T11:34:28.698Z,2.6
2022-09-12T11:36:31.496Z,2.1
2022-09-12T11:38:34.438Z,2.4
2022-09-12T11:40:37.111Z,2.4
2022-09-12T11:42:39.873Z,2.3
2022-09-12T11:44:45.751Z,2.6
2022-09-12T11:46:51.696Z,2.2
2022-09-12T11:48:51.297Z,2.3
2022-09-12T11:49:54.227Z,2
2022-09-12T11:51:56.972Z,1.5
2022-09-12T11:53:59.733Z,2.3
2022-09-12T11:56:02.505Z,2.5
2022-09-12T11:58:08.376Z,2.1
2022-09-12T12:00:11.149Z,1.7
2022-09-12T12:02:13.924Z,2.1
2022-09-12T12:04:16.677Z,1.7
2022-09-12T12:06:19.484Z,1.3
2022-09-12T12:10:24.982Z,2
2022-09-12T12:12:30.839Z,2.1
2022-09-12T12:14:33.578Z,2.4
2022-09-12T12:16:36.335Z,2
2022-09-12T12:18:39.091Z,2
2022-09-12T12:20:41.817Z,1.9
2022-09-12T12:22:44.672Z,1.6
2022-09-12T12:24:47.361Z,1.8
2022-09-12T12:26:53.125Z,2.1
2022-09-12T12:28:55.841Z,2
2022-09-12T12:30:58.637Z,2.1
2022-09-12T12:33:01.324Z,2
2022-09-12T12:35:04.062Z,1.8
2022-09-12T12:37:07.424Z,2.2
2022-09-12T12:39:09.568Z,1.6
2022-09-12T12:41:15.418Z,2.2
2022-09-12T12:46:23.952Z,1.5
2022-09-12T12:48:26.675Z,2.3
2022-09-12T12:50:29.443Z,2.3
2022-09-12T12:52:32.258Z,2
2022-09-12T12:54:38.127Z,2.3
2022-09-12T12:56:40.979Z,2.4
2022-09-12T12:58:43.781Z,2.1
2022-09-12T13:00:46.661Z,2.3
2022-09-12T13:02:49.576Z,2.7
2022-09-12T13:04:52.365Z,1.9
2022-09-12T13:06:55.243Z,1.7
2022-09-12T13:09:01.183Z,1.6
2022-09-12T13:11:04.096Z,2.5
2022-09-12T13:13:06.952Z,2
2022-09-12T13:15:09.861Z,1.7
2022-09-12T13:19:18.460Z,2.3
2022-09-12T13:21:18.573Z,2.1
2022-09-12T13:23:24.562Z,2.4
2022-09-12T13:25:27.466Z,2.2
2022-09-12T13:27:30.362Z,2.3
2022-09-12T13:31:36.157Z,2
2022-09-12T13:33:39.077Z,1.9
2022-09-12T13:35:41.968Z,2.1
2022-09-12T13:37:51.368Z,1.7
2022-09-12T13:39:50.903Z,1.7
2022-09-12T13:41:53.747Z,2.1
2022-09-12T13:50:32.784Z,2.4
2022-09-12T13:52:35.676Z,2.2
2022-09-12T13:54:38.717Z,1.7
2022-09-12T13:56:41.479Z,1.6
2022-09-12T13:58:44.444Z,2
2022-09-12T14:00:47.294Z,2.2
2022-09-12T14:04:56.069Z,2.3
2022-09-12T14:06:58.930Z,2.1
2022-09-12T14:09:01.844Z,2.2
2022-09-12T14:13:07.557Z,2.6
2022-09-12T14:15:10.465Z,2.2
2022-09-12T14:17:16.160Z,1.8
2022-09-12T14:19:19.222Z,1.8
2022-09-12T14:21:22.058Z,2.4
2022-09-12T14:23:24.922Z,2.5
2022-09-12T14:25:27.783Z,2.1
2022-09-12T14:27:30.667Z,2
2022-09-12T14:31:36.385Z,1.6
2022-09-12T14:33:42.322Z,1.8
2022-09-12T14:35:45.212Z,2.2
2022-09-12T14:38:51.058Z,1.9
2022-09-12T14:40:53.986Z,2.3
2022-09-12T14:43:00.634Z,1.8
2022-09-12T14:44:59.779Z,2.5
2022-09-12T14:49:08.668Z,1.9
2022-09-12T15:01:29.445Z,2.4
2022-09-12T15:05:35.313Z,2.5
2022-09-12T15:07:38.298Z,3.4
2022-09-12T15:11:44.250Z,2.7
2022-09-12T15:15:53.345Z,2.7
2022-09-12T15:22:02.298Z,1.9
2022-09-12T15:24:05.269Z,2.4
2022-09-12T15:28:11.292Z,2.6
2022-09-12T15:30:17.354Z,2.3
2022-09-12T15:34:24.918Z,2.4
2022-09-12T15:35:27.889Z,3
2022-09-12T15:37:30.911Z,2.3
2022-09-12T15:39:33.927Z,2.8
2022-09-12T15:41:36.971Z,2.3
2022-09-12T15:43:43.041Z,2.1
2022-09-12T15:45:46.019Z,2.8
2022-09-12T15:47:49.042Z,1.8
2022-09-12T15:49:52.081Z,2.6
2022-09-12T15:51:55.111Z,1.8
2022-09-12T15:53:58.123Z,2.1
2022-09-12T15:56:01.162Z,2.4
2022-09-12T15:58:07.514Z,2.1
2022-09-12T16:00:10.264Z,2.5
2022-09-12T16:02:13.294Z,2.2
2022-09-12T16:04:16.333Z,2.8
2022-09-12T16:06:19.381Z,1.8
2022-09-12T16:08:22.425Z,2
2022-09-12T16:10:25.463Z,2.1
2022-09-12T16:20:43.809Z,2.1
2022-09-12T16:22:46.829Z,2
2022-09-12T16:24:49.887Z,2.3
2022-09-12T16:27:00.516Z,2
2022-09-12T16:28:59.042Z,2.3
2022-09-12T16:31:02.180Z,2.4
2022-09-12T16:32:05.169Z,2.8
2022-09-12T16:34:08.232Z,2.1
2022-09-12T16:36:11.293Z,1.8
2022-09-12T16:38:14.379Z,2.1
2022-09-12T16:40:20.587Z,1.6
2022-09-12T16:42:23.567Z,2.1
2022-09-12T16:44:26.638Z,2.1
2022-09-12T16:46:29.759Z,2.7
2022-09-12T16:48:32.820Z,2.1
2022-09-12T16:50:35.880Z,1.9
2022-09-12T16:52:38.986Z,2.4
2022-09-12T16:54:45.123Z,2.1
2022-09-12T16:56:48.158Z,2.2
2022-09-12T16:58:51.471Z,2.3
2022-09-12T17:00:54.322Z,2.3
2022-09-12T17:05:00.508Z,2
2022-09-12T17:11:12.771Z,2
2022-09-12T17:15:18.974Z,1.5
2022-09-12T17:17:22.099Z,2.1
2022-09-12T17:19:25.222Z,2.4
2022-09-12T17:21:28.316Z,1.9
2022-09-12T17:23:34.476Z,2.5
2022-09-12T17:25:37.604Z,2.3
2022-09-12T17:27:40.715Z,2
2022-09-12T17:30:02.327Z,2.5
2022-09-12T17:32:05.404Z,1.9
2022-09-12T17:34:08.518Z,2.6
2022-09-12T17:36:14.678Z,2.3
2022-09-12T17:38:20.167Z,2.9
2022-09-12T17:40:28.875Z,3.7
2022-09-12T17:42:24.061Z,1.8
2022-09-12T17:44:27.225Z,2.2
2022-09-12T17:46:30.384Z,1.8
2022-09-12T17:48:33.516Z,1.9
2022-09-12T17:50:39.727Z,1.8
2022-09-12T17:54:45.939Z,2
2022-09-12T17:56:49.115Z,2
2022-09-12T17:58:52.264Z,1.9
2022-09-12T18:00:55.426Z,2.9
2022-09-12T18:02:58.610Z,2.1
2022-09-12T18:05:04.842Z,2.5
2022-09-12T18:07:07.962Z,2.1
2022-09-12T18:09:11.135Z,3
2022-09-12T18:11:14.324Z,2.4
2022-09-12T18:13:17.504Z,2.2
2022-09-12T18:15:20.667Z,2.8
2022-09-12T18:17:23.871Z,2.6
2022-09-12T18:19:30.117Z,2.4
2022-09-12T18:21:33.279Z,2.6
2022-09-12T18:23:36.574Z,2.4
2022-09-12T18:24:39.667Z,2.8
2022-09-12T18:30:49.285Z,2.6
2022-09-12T18:32:55.427Z,2.6
2022-09-12T18:34:58.611Z,2.6
2022-09-12T18:37:01.795Z,2.5
2022-09-12T18:39:05.006Z,3.1
2022-09-12T18:41:08.159Z,2.5
2022-09-12T18:47:21.001Z,2.4
2022-09-12T18:49:24.148Z,3.2
2022-09-12T18:51:27.351Z,2.9
2022-09-12T18:53:30.536Z,1.7
2022-09-12T19:03:49.543Z,2.4
2022-09-12T19:05:52.732Z,2.6
2022-09-12T19:07:55.914Z,2.8
2022-09-12T19:09:59.137Z,3.1
2022-09-12T19:12:02.332Z,3
2022-09-12T19:14:05.518Z,3.1
2022-09-12T19:16:12.047Z,3.2
2022-09-12T19:18:15.134Z,3.7
2022-09-12T19:20:18.310Z,2.7
2022-09-12T19:21:21.423Z,3
2022-09-12T19:23:24.656Z,3.2
2022-09-12T19:25:27.830Z,3.4
2022-09-12T19:27:31.077Z,3.2
2022-09-12T19:29:37.410Z,3.4
2022-09-12T19:37:50.339Z,3.5
2022-09-12T19:48:09.697Z,3.9
2022-09-12T19:50:12.907Z,3.5
2022-09-12T19:54:19.472Z,3.8
2022-09-12T19:56:22.702Z,3.5
2022-09-12T19:58:29.048Z,3.7
2022-09-12T20:00:32.377Z,4
2022-09-12T20:02:35.698Z,3.4
2022-09-12T20:06:42.088Z,3.9
2022-09-12T20:08:45.534Z,3.8
2022-09-12T20:10:48.769Z,3.3
2022-09-12T20:14:58.491Z,4
2022-09-12T20:17:01.836Z,3.7
2022-09-12T20:20:08.305Z,4.1
2022-09-12T20:26:21.371Z,5.3
2022-09-12T20:28:24.723Z,4.8
2022-09-12T20:30:28.094Z,3.9
2022-09-12T20:32:31.436Z,3.9
2022-09-12T20:36:38.134Z,4
2022-09-12T20:38:41.427Z,4.2
2022-09-12T20:40:47.801Z,4.5
2022-09-12T20:42:51.157Z,5.1
2022-09-12T20:46:57.979Z,5
2022-09-12T20:49:01.262Z,4.3
2022-09-12T20:51:04.658Z,4.7
2022-09-12T20:53:07.988Z,4.4
2022-09-12T20:57:17.780Z,4
2022-09-12T21:03:27.788Z,5.3
2022-09-12T21:07:34.444Z,4
2022-09-12T21:09:40.932Z,4.6
2022-09-12T21:11:44.324Z,4.6
2022-09-12T21:13:47.876Z,5.1
2022-09-12T21:16:06.037Z,4.3
2022-09-12T21:18:10.947Z,4.5
2022-09-12T21:20:12.694Z,4.7
2022-09-12T21:22:19.187Z,4.4
2022-09-12T21:24:22.595Z,4.6
2022-09-12T21:26:25.963Z,4.6
2022-09-12T21:28:30.900Z,4.8
2022-09-12T21:30:34.269Z,4.2
2022-09-12T21:32:37.617Z,5.5
2022-09-12T21:34:41.014Z,4.6
2022-09-12T21:36:47.485Z,5
2022-09-12T21:38:50.885Z,5.5
2022-09-12T21:40:54.276Z,5.5
2022-09-12T21:42:57.658Z,5.5
2022-09-12T21:45:00.993Z,6
2022-09-12T21:49:07.767Z,5.4
2022-09-12T21:51:14.249Z,5.7
2022-09-12T21:53:17.659Z,5.1
2022-09-12T21:57:24.355Z,5.5
2022-09-12T21:59:27.725Z,5.3
2022-09-12T22:03:34.431Z,5.4
2022-09-12T22:05:40.972Z,6.2
2022-09-12T22:09:47.762Z,5.2
2022-09-12T22:10:51.002Z,5.9
2022-09-12T22:12:54.425Z,5.5
2022-09-12T22:14:57.822Z,5.2
2022-09-12T22:17:01.207Z,5.2
2022-09-12T22:19:07.730Z,5.4
2022-09-12T22:21:11.117Z,5
2022-09-12T22:23:14.581Z,4.7
2022-09-12T22:25:17.946Z,5.6
2022-09-12T22:27:21.337Z,4.7
2022-09-12T22:29:24.745Z,4.4
2022-09-12T22:31:28.160Z,4.8
2022-09-12T22:33:34.616Z,5
2022-09-12T22:35:38.028Z,4.4
2022-09-12T22:37:41.391Z,5
2022-09-12T22:39:44.819Z,4.7
2022-09-12T22:41:48.146Z,4.8
2022-09-12T22:43:51.510Z,5
2022-09-12T22:45:54.938Z,4.3
2022-09-12T22:48:02.623Z,5.4
2022-09-12T22:52:08.189Z,4.2
2022-09-12T22:54:11.565Z,4.7
2022-09-12T22:56:14.935Z,4.2
2022-09-12T22:58:18.515Z,4.6
2022-09-12T23:02:28.095Z,4.3
2022-09-12T23:04:31.465Z,4.4
2022-09-12T23:06:34.823Z,4.5
2022-09-12T23:09:41.462Z,4.7
2022-09-12T23:11:44.831Z,3.6
2022-09-12T23:13:48.227Z,3.7
2022-09-12T23:15:54.532Z,4.1
2022-09-12T23:17:57.866Z,4.1
2022-09-12T23:20:01.241Z,4.3
2022-09-12T23:22:04.586Z,3
2022-09-12T23:24:07.940Z,4.6
2022-09-12T23:26:11.316Z,4.2
2022-09-12T23:30:21.039Z,3.7
2022-09-12T23:32:24.393Z,3.4
2022-09-12T23:34:27.652Z,3.8
2022-09-12T23:36:30.917Z,3.7
2022-09-12T23:40:37.660Z,3.5
2022-09-12T23:42:41.011Z,4.3
2022-09-12T23:44:47.523Z,3.8
2022-09-12T23:46:50.777Z,3.8
2022-09-12T23:48:54.148Z,3.9
2022-09-12T23:50:57.426Z,4.1
2022-09-12T23:57:07.537Z,3.5
